sensor_id;sensor_type;location;lat;lon;timestamp;P1;durP1;ratioP1;P2;durP2;ratioP2
2488;SDS011;1255;48.716;9.124;2022-08-19T00:00:48;11.30;;;8.03;;
2488;SDS011;1255;48.716;9.124;2022-08-19T00:03:16;10.10;;;8.40;;
2488;SDS011;1255;48.716;9.124;2022-08-19T00:05:43;9.50;;;7.97;;
2488;SDS011;1255;48.716;9.124;2022-08-19T00:08:10;8.60;;;7.70;;
2488;SDS011;1255;48.716;9.124;2022-08-19T00:10:37;8.23;;;7.43;;
2488;SDS011;1255;48.716;9.124;2022-08-19T00:13:04;9.27;;;7.60;;
2488;SDS011;1255;48.716;9.124;2022-08-19T00:15:30;9.03;;;7.70;;
2488;SDS011;1255;48.716;9.124;2022-08-19T00:17:57;10.07;;;8.27;;
2488;SDS011;1255;48.716;9.124;2022-08-19T00:20:25;11.03;;;8.87;;
2488;SDS011;1255;48.716;9.124;2022-08-19T00:22:52;10.70;;;8.30;;
2488;SDS011;1255;48.716;9.124;2022-08-19T00:25:19;10.40;;;8.67;;
2488;SDS011;1255;48.716;9.124;2022-08-19T00:27:46;9.40;;;7.80;;
2488;SDS011;1255;48.716;9.124;2022-08-19T00:30:13;10.63;;;8.93;;
2488;SDS011;1255;48.716;9.124;2022-08-19T00:32:40;10.53;;;9.43;;
2488;SDS011;1255;48.716;9.124;2022-08-19T00:35:07;11.30;;;8.30;;
2488;SDS011;1255;48.716;9.124;2022-08-19T00:37:37;9.43;;;8.30;;
2488;SDS011;1255;48.716;9.124;2022-08-19T00:40:06;11.20;;;9.10;;
2488;SDS011;1255;48.716;9.124;2022-08-19T00:42:34;8.47;;;7.67;;
2488;SDS011;1255;48.716;9.124;2022-08-19T00:45:00;12.60;;;8.47;;
2488;SDS011;1255;48.716;9.124;2022-08-19T00:47:28;9.00;;;8.07;;
2488;SDS011;1255;48.716;9.124;2022-08-19T00:49:56;9.73;;;8.50;;
2488;SDS011;1255;48.716;9.124;2022-08-19T00:52:23;10.27;;;8.00;;
2488;SDS011;1255;48.716;9.124;2022-08-19T00:54:55;9.30;;;7.70;;
2488;SDS011;1255;48.716;9.124;2022-08-19T00:57:25;12.20;;;8.50;;
2488;SDS011;1255;48.716;9.124;2022-08-19T00:59:56;9.73;;;7.80;;
2488;SDS011;1255;48.716;9.124;2022-08-19T01:02:25;9.83;;;7.80;;
2488;SDS011;1255;48.716;9.124;2022-08-19T01:04:52;8.57;;;7.30;;
2488;SDS011;1255;48.716;9.124;2022-08-19T01:07:19;9.10;;;8.13;;
2488;SDS011;1255;48.716;9.124;2022-08-19T01:09:46;10.93;;;8.80;;
2488;SDS011;1255;48.716;9.124;2022-08-19T01:12:14;10.27;;;8.77;;
2488;SDS011;1255;48.716;9.124;2022-08-19T01:14:42;9.77;;;8.60;;
2488;SDS011;1255;48.716;9.124;2022-08-19T01:17:11;10.00;;;8.50;;
2488;SDS011;1255;48.716;9.124;2022-08-19T01:19:39;11.40;;;8.80;;
2488;SDS011;1255;48.716;9.124;2022-08-19T01:22:08;9.53;;;8.57;;
2488;SDS011;1255;48.716;9.124;2022-08-19T01:24:40;10.37;;;8.97;;
2488;SDS011;1255;48.716;9.124;2022-08-19T01:27:07;10.20;;;8.20;;
2488;SDS011;1255;48.716;9.124;2022-08-19T01:29:36;10.87;;;9.17;;
2488;SDS011;1255;48.716;9.124;2022-08-19T01:32:06;10.87;;;9.13;;
2488;SDS011;1255;48.716;9.124;2022-08-19T01:34:33;10.67;;;9.17;;
2488;SDS011;1255;48.716;9.124;2022-08-19T01:37:01;10.77;;;8.90;;
2488;SDS011;1255;48.716;9.124;2022-08-19T01:39:35;11.67;;;8.97;;
2488;SDS011;1255;48.716;9.124;2022-08-19T01:42:05;10.63;;;8.90;;
2488;SDS011;1255;48.716;9.124;2022-08-19T01:44:34;9.60;;;8.60;;
2488;SDS011;1255;48.716;9.124;2022-08-19T01:47:01;12.43;;;9.30;;
2488;SDS011;1255;48.716;9.124;2022-08-19T01:49:29;10.67;;;9.13;;
2488;SDS011;1255;48.716;9.124;2022-08-19T01:51:56;10.27;;;8.73;;
2488;SDS011;1255;48.716;9.124;2022-08-19T01:54:25;9.93;;;8.37;;
2488;SDS011;1255;48.716;9.124;2022-08-19T01:56:52;12.10;;;8.90;;
2488;SDS011;1255;48.716;9.124;2022-08-19T01:59:21;12.10;;;10.43;;
2488;SDS011;1255;48.716;9.124;2022-08-19T02:01:50;11.60;;;9.60;;
2488;SDS011;1255;48.716;9.124;2022-08-19T02:04:16;12.10;;;9.20;;
2488;SDS011;1255;48.716;9.124;2022-08-19T02:06:43;10.37;;;9.23;;
2488;SDS011;1255;48.716;9.124;2022-08-19T02:09:10;11.47;;;8.83;;
2488;SDS011;1255;48.716;9.124;2022-08-19T02:11:37;11.40;;;9.00;;
2488;SDS011;1255;48.716;9.124;2022-08-19T02:14:05;9.53;;;8.53;;
2488;SDS011;1255;48.716;9.124;2022-08-19T02:16:34;11.43;;;9.20;;
2488;SDS011;1255;48.716;9.124;2022-08-19T02:19:03;11.90;;;9.60;;
2488;SDS011;1255;48.716;9.124;2022-08-19T02:21:30;11.53;;;9.53;;
2488;SDS011;1255;48.716;9.124;2022-08-19T02:23:57;12.03;;;10.07;;
2488;SDS011;1255;48.716;9.124;2022-08-19T02:26:24;12.60;;;10.17;;
2488;SDS011;1255;48.716;9.124;2022-08-19T02:28:52;10.47;;;8.90;;
2488;SDS011;1255;48.716;9.124;2022-08-19T02:31:20;13.07;;;9.00;;
2488;SDS011;1255;48.716;9.124;2022-08-19T02:33:49;10.57;;;8.93;;
2488;SDS011;1255;48.716;9.124;2022-08-19T02:36:17;11.37;;;9.10;;
2488;SDS011;1255;48.716;9.124;2022-08-19T02:38:44;13.03;;;10.23;;
2488;SDS011;1255;48.716;9.124;2022-08-19T02:41:12;12.20;;;9.00;;
2488;SDS011;1255;48.716;9.124;2022-08-19T02:43:40;10.67;;;9.23;;
2488;SDS011;1255;48.716;9.124;2022-08-19T02:46:11;14.07;;;10.30;;
2488;SDS011;1255;48.716;9.124;2022-08-19T02:48:39;11.50;;;9.60;;
2488;SDS011;1255;48.716;9.124;2022-08-19T02:51:07;14.00;;;9.23;;
2488;SDS011;1255;48.716;9.124;2022-08-19T02:53:34;15.30;;;10.33;;
2488;SDS011;1255;48.716;9.124;2022-08-19T02:56:05;11.87;;;9.30;;
2488;SDS011;1255;48.716;9.124;2022-08-19T02:58:32;15.70;;;10.63;;
2488;SDS011;1255;48.716;9.124;2022-08-19T03:00:59;10.87;;;9.40;;
2488;SDS011;1255;48.716;9.124;2022-08-19T03:03:26;12.17;;;9.77;;
2488;SDS011;1255;48.716;9.124;2022-08-19T03:06:02;12.83;;;10.27;;
2488;SDS011;1255;48.716;9.124;2022-08-19T03:08:32;11.93;;;9.87;;
2488;SDS011;1255;48.716;9.124;2022-08-19T03:10:58;12.60;;;10.60;;
2488;SDS011;1255;48.716;9.124;2022-08-19T03:13:25;12.23;;;9.83;;
2488;SDS011;1255;48.716;9.124;2022-08-19T03:15:53;12.50;;;10.47;;
2488;SDS011;1255;48.716;9.124;2022-08-19T03:18:19;15.20;;;11.23;;
2488;SDS011;1255;48.716;9.124;2022-08-19T03:20:47;13.50;;;10.43;;
2488;SDS011;1255;48.716;9.124;2022-08-19T03:23:16;13.53;;;11.10;;
2488;SDS011;1255;48.716;9.124;2022-08-19T03:25:46;11.20;;;9.27;;
2488;SDS011;1255;48.716;9.124;2022-08-19T03:28:15;12.07;;;10.77;;
2488;SDS011;1255;48.716;9.124;2022-08-19T03:30:43;13.73;;;11.00;;
2488;SDS011;1255;48.716;9.124;2022-08-19T03:33:22;16.33;;;11.90;;
2488;SDS011;1255;48.716;9.124;2022-08-19T03:35:58;12.93;;;10.80;;
2488;SDS011;1255;48.716;9.124;2022-08-19T03:38:26;12.27;;;11.03;;
2488;SDS011;1255;48.716;9.124;2022-08-19T03:40:54;12.80;;;10.43;;
2488;SDS011;1255;48.716;9.124;2022-08-19T03:43:22;16.30;;;11.13;;
2488;SDS011;1255;48.716;9.124;2022-08-19T03:45:59;14.87;;;11.80;;
2488;SDS011;1255;48.716;9.124;2022-08-19T03:48:32;14.60;;;11.53;;
2488;SDS011;1255;48.716;9.124;2022-08-19T03:51:00;13.97;;;11.67;;
2488;SDS011;1255;48.716;9.124;2022-08-19T03:53:28;17.20;;;12.00;;
2488;SDS011;1255;48.716;9.124;2022-08-19T03:55:57;12.00;;;10.30;;
2488;SDS011;1255;48.716;9.124;2022-08-19T03:58:25;14.97;;;12.00;;
2488;SDS011;1255;48.716;9.124;2022-08-19T04:00:53;13.20;;;11.50;;
2488;SDS011;1255;48.716;9.124;2022-08-19T04:03:21;13.40;;;10.67;;
2488;SDS011;1255;48.716;9.124;2022-08-19T04:05:49;14.80;;;10.77;;
2488;SDS011;1255;48.716;9.124;2022-08-19T04:08:16;14.70;;;12.13;;
2488;SDS011;1255;48.716;9.124;2022-08-19T04:10:45;14.40;;;11.40;;
2488;SDS011;1255;48.716;9.124;2022-08-19T04:13:14;14.43;;;11.87;;
2488;SDS011;1255;48.716;9.124;2022-08-19T04:15:42;13.23;;;10.83;;
2488;SDS011;1255;48.716;9.124;2022-08-19T04:18:11;13.87;;;11.40;;
2488;SDS011;1255;48.716;9.124;2022-08-19T04:20:43;14.37;;;11.50;;
2488;SDS011;1255;48.716;9.124;2022-08-19T04:23:11;13.27;;;11.20;;
2488;SDS011;1255;48.716;9.124;2022-08-19T04:25:40;14.60;;;11.37;;
2488;SDS011;1255;48.716;9.124;2022-08-19T04:28:24;14.30;;;12.80;;
2488;SDS011;1255;48.716;9.124;2022-08-19T04:30:55;13.87;;;12.43;;
2488;SDS011;1255;48.716;9.124;2022-08-19T04:33:27;15.03;;;11.63;;
2488;SDS011;1255;48.716;9.124;2022-08-19T04:35:55;16.90;;;12.63;;
2488;SDS011;1255;48.716;9.124;2022-08-19T04:38:26;15.30;;;12.53;;
2488;SDS011;1255;48.716;9.124;2022-08-19T04:41:06;16.37;;;12.70;;
2488;SDS011;1255;48.716;9.124;2022-08-19T04:44:03;14.70;;;11.43;;
2488;SDS011;1255;48.716;9.124;2022-08-19T04:46:43;13.20;;;10.93;;
2488;SDS011;1255;48.716;9.124;2022-08-19T04:49:21;16.03;;;12.53;;
2488;SDS011;1255;48.716;9.124;2022-08-19T04:51:58;17.43;;;12.20;;
2488;SDS011;1255;48.716;9.124;2022-08-19T04:54:45;15.60;;;13.07;;
2488;SDS011;1255;48.716;9.124;2022-08-19T04:57:38;19.43;;;12.47;;
2488;SDS011;1255;48.716;9.124;2022-08-19T05:00:38;13.90;;;11.47;;
2488;SDS011;1255;48.716;9.124;2022-08-19T05:03:05;13.67;;;12.00;;
2488;SDS011;1255;48.716;9.124;2022-08-19T05:05:33;17.83;;;12.27;;
2488;SDS011;1255;48.716;9.124;2022-08-19T05:08:05;15.90;;;12.57;;
2488;SDS011;1255;48.716;9.124;2022-08-19T05:10:34;16.20;;;12.20;;
2488;SDS011;1255;48.716;9.124;2022-08-19T05:13:01;18.73;;;14.47;;
2488;SDS011;1255;48.716;9.124;2022-08-19T05:15:28;14.30;;;12.47;;
2488;SDS011;1255;48.716;9.124;2022-08-19T05:17:57;14.70;;;11.73;;
2488;SDS011;1255;48.716;9.124;2022-08-19T05:20:43;16.20;;;12.50;;
2488;SDS011;1255;48.716;9.124;2022-08-19T05:23:27;16.40;;;13.00;;
2488;SDS011;1255;48.716;9.124;2022-08-19T05:25:55;16.43;;;12.50;;
2488;SDS011;1255;48.716;9.124;2022-08-19T05:28:21;16.00;;;12.17;;
2488;SDS011;1255;48.716;9.124;2022-08-19T05:30:48;16.10;;;11.93;;
2488;SDS011;1255;48.716;9.124;2022-08-19T05:33:17;18.00;;;13.40;;
2488;SDS011;1255;48.716;9.124;2022-08-19T05:35:44;13.37;;;11.80;;
2488;SDS011;1255;48.716;9.124;2022-08-19T05:38:11;14.77;;;11.93;;
2488;SDS011;1255;48.716;9.124;2022-08-19T05:40:37;14.53;;;11.67;;
2488;SDS011;1255;48.716;9.124;2022-08-19T05:43:05;17.20;;;12.27;;
2488;SDS011;1255;48.716;9.124;2022-08-19T05:45:37;16.90;;;12.07;;
2488;SDS011;1255;48.716;9.124;2022-08-19T05:48:05;15.53;;;12.83;;
2488;SDS011;1255;48.716;9.124;2022-08-19T05:50:34;15.67;;;12.43;;
2488;SDS011;1255;48.716;9.124;2022-08-19T05:53:01;15.30;;;12.60;;
2488;SDS011;1255;48.716;9.124;2022-08-19T05:55:28;15.43;;;12.60;;
2488;SDS011;1255;48.716;9.124;2022-08-19T05:57:55;16.53;;;12.70;;
2488;SDS011;1255;48.716;9.124;2022-08-19T06:00:22;15.87;;;12.30;;
2488;SDS011;1255;48.716;9.124;2022-08-19T06:02:49;14.80;;;11.67;;
2488;SDS011;1255;48.716;9.124;2022-08-19T06:05:16;14.37;;;12.17;;
2488;SDS011;1255;48.716;9.124;2022-08-19T06:07:46;15.80;;;12.87;;
2488;SDS011;1255;48.716;9.124;2022-08-19T06:10:13;16.17;;;12.07;;
2488;SDS011;1255;48.716;9.124;2022-08-19T06:12:39;15.50;;;12.30;;
2488;SDS011;1255;48.716;9.124;2022-08-19T06:15:07;13.00;;;11.10;;
2488;SDS011;1255;48.716;9.124;2022-08-19T06:17:35;17.00;;;13.37;;
2488;SDS011;1255;48.716;9.124;2022-08-19T06:20:03;16.50;;;12.90;;
2488;SDS011;1255;48.716;9.124;2022-08-19T06:22:31;16.20;;;13.77;;
2488;SDS011;1255;48.716;9.124;2022-08-19T06:25:05;17.10;;;13.10;;
2488;SDS011;1255;48.716;9.124;2022-08-19T06:27:34;14.17;;;10.87;;
2488;SDS011;1255;48.716;9.124;2022-08-19T06:30:01;14.47;;;11.10;;
2488;SDS011;1255;48.716;9.124;2022-08-19T06:32:30;17.30;;;12.93;;
2488;SDS011;1255;48.716;9.124;2022-08-19T06:34:57;14.97;;;12.33;;
2488;SDS011;1255;48.716;9.124;2022-08-19T06:37:23;17.37;;;12.03;;
2488;SDS011;1255;48.716;9.124;2022-08-19T06:39:50;13.80;;;11.33;;
2488;SDS011;1255;48.716;9.124;2022-08-19T06:42:18;15.30;;;11.43;;
2488;SDS011;1255;48.716;9.124;2022-08-19T06:44:45;15.27;;;12.50;;
2488;SDS011;1255;48.716;9.124;2022-08-19T06:47:16;15.13;;;13.20;;
2488;SDS011;1255;48.716;9.124;2022-08-19T06:49:45;14.20;;;12.70;;
2488;SDS011;1255;48.716;9.124;2022-08-19T06:52:11;13.87;;;11.43;;
2488;SDS011;1255;48.716;9.124;2022-08-19T06:54:39;18.90;;;12.20;;
2488;SDS011;1255;48.716;9.124;2022-08-19T06:57:06;17.93;;;11.90;;
2488;SDS011;1255;48.716;9.124;2022-08-19T06:59:39;15.73;;;12.03;;
2488;SDS011;1255;48.716;9.124;2022-08-19T07:02:06;15.83;;;12.37;;
2488;SDS011;1255;48.716;9.124;2022-08-19T07:04:34;14.10;;;11.90;;
2488;SDS011;1255;48.716;9.124;2022-08-19T07:07:04;13.63;;;11.10;;
2488;SDS011;1255;48.716;9.124;2022-08-19T07:09:33;17.13;;;14.33;;
2488;SDS011;1255;48.716;9.124;2022-08-19T07:12:02;16.70;;;12.17;;
2488;SDS011;1255;48.716;9.124;2022-08-19T07:14:31;15.33;;;12.73;;
2488;SDS011;1255;48.716;9.124;2022-08-19T07:17:04;13.30;;;11.97;;
2488;SDS011;1255;48.716;9.124;2022-08-19T07:19:33;16.30;;;12.60;;
2488;SDS011;1255;48.716;9.124;2022-08-19T07:22:00;15.10;;;11.60;;
2488;SDS011;1255;48.716;9.124;2022-08-19T07:24:29;17.10;;;13.97;;
2488;SDS011;1255;48.716;9.124;2022-08-19T07:26:57;19.30;;;13.00;;
2488;SDS011;1255;48.716;9.124;2022-08-19T07:29:27;16.07;;;12.70;;
2488;SDS011;1255;48.716;9.124;2022-08-19T07:31:55;13.80;;;12.13;;
2488;SDS011;1255;48.716;9.124;2022-08-19T07:34:25;15.43;;;11.50;;
2488;SDS011;1255;48.716;9.124;2022-08-19T07:36:53;15.83;;;11.37;;
2488;SDS011;1255;48.716;9.124;2022-08-19T07:39:22;18.83;;;12.90;;
2488;SDS011;1255;48.716;9.124;2022-08-19T07:41:50;12.43;;;10.50;;
2488;SDS011;1255;48.716;9.124;2022-08-19T07:44:18;13.33;;;11.60;;
2488;SDS011;1255;48.716;9.124;2022-08-19T07:46:46;15.90;;;11.77;;
2488;SDS011;1255;48.716;9.124;2022-08-19T07:49:15;15.00;;;12.50;;
2488;SDS011;1255;48.716;9.124;2022-08-19T07:51:45;13.40;;;10.90;;
2488;SDS011;1255;48.716;9.124;2022-08-19T07:54:13;12.83;;;11.47;;
2488;SDS011;1255;48.716;9.124;2022-08-19T07:56:40;12.73;;;10.27;;
2488;SDS011;1255;48.716;9.124;2022-08-19T07:59:06;12.23;;;10.30;;
2488;SDS011;1255;48.716;9.124;2022-08-19T08:01:34;12.97;;;10.77;;
2488;SDS011;1255;48.716;9.124;2022-08-19T08:04:01;12.70;;;11.20;;
2488;SDS011;1255;48.716;9.124;2022-08-19T08:06:47;15.20;;;11.17;;
2488;SDS011;1255;48.716;9.124;2022-08-19T08:09:33;11.33;;;9.60;;
2488;SDS011;1255;48.716;9.124;2022-08-19T08:12:03;11.53;;;10.33;;
2488;SDS011;1255;48.716;9.124;2022-08-19T08:14:32;12.57;;;10.13;;
2488;SDS011;1255;48.716;9.124;2022-08-19T08:17:01;12.63;;;10.10;;
2488;SDS011;1255;48.716;9.124;2022-08-19T08:19:29;13.93;;;10.27;;
2488;SDS011;1255;48.716;9.124;2022-08-19T08:21:58;14.40;;;11.23;;
2488;SDS011;1255;48.716;9.124;2022-08-19T08:24:28;14.20;;;10.97;;
2488;SDS011;1255;48.716;9.124;2022-08-19T08:26:57;12.40;;;10.63;;
2488;SDS011;1255;48.716;9.124;2022-08-19T08:29:25;12.73;;;10.10;;
2488;SDS011;1255;48.716;9.124;2022-08-19T08:31:55;11.17;;;10.00;;
2488;SDS011;1255;48.716;9.124;2022-08-19T08:34:23;15.70;;;11.70;;
2488;SDS011;1255;48.716;9.124;2022-08-19T08:36:49;13.23;;;10.40;;
2488;SDS011;1255;48.716;9.124;2022-08-19T08:39:19;12.97;;;10.50;;
2488;SDS011;1255;48.716;9.124;2022-08-19T08:41:49;15.90;;;11.13;;
2488;SDS011;1255;48.716;9.124;2022-08-19T08:44:20;10.80;;;9.70;;
2488;SDS011;1255;48.716;9.124;2022-08-19T08:46:50;11.90;;;9.63;;
2488;SDS011;1255;48.716;9.124;2022-08-19T08:49:26;14.57;;;10.67;;
2488;SDS011;1255;48.716;9.124;2022-08-19T08:51:59;12.40;;;10.23;;
2488;SDS011;1255;48.716;9.124;2022-08-19T08:54:33;15.87;;;11.80;;
2488;SDS011;1255;48.716;9.124;2022-08-19T08:57:02;13.03;;;10.83;;
2488;SDS011;1255;48.716;9.124;2022-08-19T08:59:34;11.73;;;10.30;;
2488;SDS011;1255;48.716;9.124;2022-08-19T09:02:03;15.30;;;11.10;;
2488;SDS011;1255;48.716;9.124;2022-08-19T09:04:30;17.47;;;10.67;;
2488;SDS011;1255;48.716;9.124;2022-08-19T09:07:04;14.03;;;10.80;;
2488;SDS011;1255;48.716;9.124;2022-08-19T09:09:46;12.93;;;10.60;;
2488;SDS011;1255;48.716;9.124;2022-08-19T09:12:17;11.23;;;10.07;;
2488;SDS011;1255;48.716;9.124;2022-08-19T09:14:50;11.87;;;10.23;;
2488;SDS011;1255;48.716;9.124;2022-08-19T09:17:22;11.87;;;10.10;;
2488;SDS011;1255;48.716;9.124;2022-08-19T09:19:53;12.87;;;10.10;;
2488;SDS011;1255;48.716;9.124;2022-08-19T09:22:21;14.93;;;10.77;;
2488;SDS011;1255;48.716;9.124;2022-08-19T09:24:50;13.90;;;11.37;;
2488;SDS011;1255;48.716;9.124;2022-08-19T09:27:18;10.47;;;9.37;;
2488;SDS011;1255;48.716;9.124;2022-08-19T09:29:45;12.77;;;11.07;;
2488;SDS011;1255;48.716;9.124;2022-08-19T09:32:13;16.20;;;10.27;;
2488;SDS011;1255;48.716;9.124;2022-08-19T09:34:40;14.70;;;12.03;;
2488;SDS011;1255;48.716;9.124;2022-08-19T09:37:08;11.70;;;10.50;;
2488;SDS011;1255;48.716;9.124;2022-08-19T09:39:35;11.37;;;10.17;;
2488;SDS011;1255;48.716;9.124;2022-08-19T09:42:04;11.93;;;10.20;;
2488;SDS011;1255;48.716;9.124;2022-08-19T09:44:35;12.23;;;9.90;;
2488;SDS011;1255;48.716;9.124;2022-08-19T09:47:01;13.53;;;11.53;;
2488;SDS011;1255;48.716;9.124;2022-08-19T09:49:29;11.77;;;10.20;;
2488;SDS011;1255;48.716;9.124;2022-08-19T09:51:56;12.80;;;10.13;;
2488;SDS011;1255;48.716;9.124;2022-08-19T09:54:23;15.20;;;11.23;;
2488;SDS011;1255;48.716;9.124;2022-08-19T09:56:50;12.67;;;10.30;;
2488;SDS011;1255;48.716;9.124;2022-08-19T09:59:19;11.60;;;10.40;;
2488;SDS011;1255;48.716;9.124;2022-08-19T10:01:45;11.13;;;9.77;;
2488;SDS011;1255;48.716;9.124;2022-08-19T10:04:12;12.63;;;9.30;;
2488;SDS011;1255;48.716;9.124;2022-08-19T10:06:39;9.83;;;8.83;;
2488;SDS011;1255;48.716;9.124;2022-08-19T10:09:06;11.90;;;10.23;;
2488;SDS011;1255;48.716;9.124;2022-08-19T10:11:36;11.77;;;9.43;;
2488;SDS011;1255;48.716;9.124;2022-08-19T10:14:06;10.50;;;9.40;;
2488;SDS011;1255;48.716;9.124;2022-08-19T10:16:35;13.33;;;9.40;;
2488;SDS011;1255;48.716;9.124;2022-08-19T10:19:04;10.23;;;9.00;;
2488;SDS011;1255;48.716;9.124;2022-08-19T10:21:32;11.00;;;9.27;;
2488;SDS011;1255;48.716;9.124;2022-08-19T10:24:00;16.03;;;12.57;;
2488;SDS011;1255;48.716;9.124;2022-08-19T10:26:30;15.47;;;12.30;;
2488;SDS011;1255;48.716;9.124;2022-08-19T10:28:59;14.00;;;10.10;;
2488;SDS011;1255;48.716;9.124;2022-08-19T10:31:27;12.90;;;10.47;;
2488;SDS011;1255;48.716;9.124;2022-08-19T10:33:57;11.97;;;10.37;;
2488;SDS011;1255;48.716;9.124;2022-08-19T10:36:25;10.27;;;9.10;;
2488;SDS011;1255;48.716;9.124;2022-08-19T10:38:54;9.20;;;8.30;;
2488;SDS011;1255;48.716;9.124;2022-08-19T10:41:24;10.47;;;9.37;;
2488;SDS011;1255;48.716;9.124;2022-08-19T10:43:52;9.60;;;8.70;;
2488;SDS011;1255;48.716;9.124;2022-08-19T10:46:20;9.00;;;8.07;;
2488;SDS011;1255;48.716;9.124;2022-08-19T10:48:48;10.33;;;8.83;;
2488;SDS011;1255;48.716;9.124;2022-08-19T10:51:17;10.00;;;9.00;;
2488;SDS011;1255;48.716;9.124;2022-08-19T10:54:01;9.23;;;7.00;;
2488;SDS011;1255;48.716;9.124;2022-08-19T10:56:29;9.73;;;7.90;;
2488;SDS011;1255;48.716;9.124;2022-08-19T10:59:10;10.50;;;7.27;;
2488;SDS011;1255;48.716;9.124;2022-08-19T11:01:39;10.70;;;8.37;;
2488;SDS011;1255;48.716;9.124;2022-08-19T11:04:06;11.07;;;7.70;;
2488;SDS011;1255;48.716;9.124;2022-08-19T11:06:36;10.53;;;8.30;;
2488;SDS011;1255;48.716;9.124;2022-08-19T11:09:05;8.17;;;7.33;;
2488;SDS011;1255;48.716;9.124;2022-08-19T11:11:33;8.00;;;7.17;;
2488;SDS011;1255;48.716;9.124;2022-08-19T11:14:04;7.50;;;6.73;;
2488;SDS011;1255;48.716;9.124;2022-08-19T11:16:31;9.37;;;7.50;;
2488;SDS011;1255;48.716;9.124;2022-08-19T11:18:58;8.80;;;7.90;;
2488;SDS011;1255;48.716;9.124;2022-08-19T11:21:27;7.50;;;6.70;;
2488;SDS011;1255;48.716;9.124;2022-08-19T11:23:58;7.17;;;6.47;;
2488;SDS011;1255;48.716;9.124;2022-08-19T11:26:26;7.67;;;6.33;;
2488;SDS011;1255;48.716;9.124;2022-08-19T11:28:54;9.20;;;6.80;;
2488;SDS011;1255;48.716;9.124;2022-08-19T11:31:23;8.13;;;7.17;;
2488;SDS011;1255;48.716;9.124;2022-08-19T11:33:51;7.33;;;6.63;;
2488;SDS011;1255;48.716;9.124;2022-08-19T11:36:19;6.93;;;6.23;;
2488;SDS011;1255;48.716;9.124;2022-08-19T11:38:47;7.30;;;6.60;;
2488;SDS011;1255;48.716;9.124;2022-08-19T11:41:16;7.43;;;6.73;;
2488;SDS011;1255;48.716;9.124;2022-08-19T11:43:45;7.53;;;6.83;;
2488;SDS011;1255;48.716;9.124;2022-08-19T11:46:12;7.00;;;6.27;;
2488;SDS011;1255;48.716;9.124;2022-08-19T11:48:41;7.77;;;7.07;;
2488;SDS011;1255;48.716;9.124;2022-08-19T11:51:09;7.10;;;6.37;;
2488;SDS011;1255;48.716;9.124;2022-08-19T11:53:37;8.87;;;7.63;;
2488;SDS011;1255;48.716;9.124;2022-08-19T11:56:05;8.60;;;7.27;;
2488;SDS011;1255;48.716;9.124;2022-08-19T11:58:34;10.80;;;7.00;;
2488;SDS011;1255;48.716;9.124;2022-08-19T12:01:04;7.00;;;6.30;;
2488;SDS011;1255;48.716;9.124;2022-08-19T12:03:31;7.43;;;6.40;;
2488;SDS011;1255;48.716;9.124;2022-08-19T12:05:58;7.30;;;6.60;;
2488;SDS011;1255;48.716;9.124;2022-08-19T12:08:29;7.10;;;6.40;;
2488;SDS011;1255;48.716;9.124;2022-08-19T12:10:55;7.43;;;6.40;;
2488;SDS011;1255;48.716;9.124;2022-08-19T12:13:22;6.37;;;5.77;;
2488;SDS011;1255;48.716;9.124;2022-08-19T12:15:50;7.03;;;6.33;;
2488;SDS011;1255;48.716;9.124;2022-08-19T12:18:18;8.40;;;6.70;;
2488;SDS011;1255;48.716;9.124;2022-08-19T12:20:45;6.80;;;6.20;;
2488;SDS011;1255;48.716;9.124;2022-08-19T12:23:12;7.40;;;6.70;;
2488;SDS011;1255;48.716;9.124;2022-08-19T12:25:43;6.87;;;6.17;;
2488;SDS011;1255;48.716;9.124;2022-08-19T12:28:14;5.60;;;5.10;;
2488;SDS011;1255;48.716;9.124;2022-08-19T12:30:41;7.53;;;6.80;;
2488;SDS011;1255;48.716;9.124;2022-08-19T12:33:10;6.53;;;5.83;;
2488;SDS011;1255;48.716;9.124;2022-08-19T12:35:39;6.90;;;6.30;;
2488;SDS011;1255;48.716;9.124;2022-08-19T12:38:07;10.17;;;6.80;;
2488;SDS011;1255;48.716;9.124;2022-08-19T12:40:33;6.13;;;5.53;;
2488;SDS011;1255;48.716;9.124;2022-08-19T12:43:00;6.87;;;6.27;;
2488;SDS011;1255;48.716;9.124;2022-08-19T12:45:27;8.03;;;6.00;;
2488;SDS011;1255;48.716;9.124;2022-08-19T12:47:54;7.03;;;6.33;;
2488;SDS011;1255;48.716;9.124;2022-08-19T12:50:23;7.13;;;5.90;;
2488;SDS011;1255;48.716;9.124;2022-08-19T12:52:50;6.10;;;5.60;;
2488;SDS011;1255;48.716;9.124;2022-08-19T12:55:17;7.37;;;6.67;;
2488;SDS011;1255;48.716;9.124;2022-08-19T12:57:44;9.00;;;5.90;;
2488;SDS011;1255;48.716;9.124;2022-08-19T13:00:13;6.60;;;5.90;;
2488;SDS011;1255;48.716;9.124;2022-08-19T13:02:43;9.97;;;7.87;;
2488;SDS011;1255;48.716;9.124;2022-08-19T13:05:13;12.40;;;8.43;;
2488;SDS011;1255;48.716;9.124;2022-08-19T13:07:43;11.10;;;9.77;;
2488;SDS011;1255;48.716;9.124;2022-08-19T13:10:10;11.00;;;9.73;;
2488;SDS011;1255;48.716;9.124;2022-08-19T13:12:40;10.50;;;9.40;;
2488;SDS011;1255;48.716;9.124;2022-08-19T13:15:08;12.20;;;10.20;;
2488;SDS011;1255;48.716;9.124;2022-08-19T13:17:36;9.40;;;8.17;;
2488;SDS011;1255;48.716;9.124;2022-08-19T13:20:03;12.60;;;9.43;;
2488;SDS011;1255;48.716;9.124;2022-08-19T13:22:32;10.70;;;9.50;;
2488;SDS011;1255;48.716;9.124;2022-08-19T13:25:02;8.43;;;7.63;;
2488;SDS011;1255;48.716;9.124;2022-08-19T13:27:30;11.23;;;10.10;;
2488;SDS011;1255;48.716;9.124;2022-08-19T13:29:57;10.40;;;9.37;;
2488;SDS011;1255;48.716;9.124;2022-08-19T13:32:41;10.50;;;9.40;;
2488;SDS011;1255;48.716;9.124;2022-08-19T13:35:25;11.10;;;8.87;;
2488;SDS011;1255;48.716;9.124;2022-08-19T13:37:52;9.67;;;8.77;;
2488;SDS011;1255;48.716;9.124;2022-08-19T13:40:22;12.40;;;9.83;;
2488;SDS011;1255;48.716;9.124;2022-08-19T13:42:52;10.83;;;9.73;;
2488;SDS011;1255;48.716;9.124;2022-08-19T13:45:20;11.23;;;9.80;;
2488;SDS011;1255;48.716;9.124;2022-08-19T13:47:51;11.57;;;10.30;;
2488;SDS011;1255;48.716;9.124;2022-08-19T13:50:19;10.70;;;9.60;;
2488;SDS011;1255;48.716;9.124;2022-08-19T13:52:50;10.97;;;8.97;;
2488;SDS011;1255;48.716;9.124;2022-08-19T13:55:17;11.63;;;9.90;;
2488;SDS011;1255;48.716;9.124;2022-08-19T13:57:46;16.03;;;11.30;;
2488;SDS011;1255;48.716;9.124;2022-08-19T14:00:16;11.30;;;10.10;;
2488;SDS011;1255;48.716;9.124;2022-08-19T14:02:45;12.00;;;9.40;;
2488;SDS011;1255;48.716;9.124;2022-08-19T14:05:13;11.27;;;9.83;;
2488;SDS011;1255;48.716;9.124;2022-08-19T14:07:42;14.07;;;12.13;;
2488;SDS011;1255;48.716;9.124;2022-08-19T14:10:10;11.27;;;10.17;;
2488;SDS011;1255;48.716;9.124;2022-08-19T14:12:39;14.33;;;12.13;;
2488;SDS011;1255;48.716;9.124;2022-08-19T14:15:08;13.80;;;11.90;;
2488;SDS011;1255;48.716;9.124;2022-08-19T14:17:37;13.60;;;12.07;;
2488;SDS011;1255;48.716;9.124;2022-08-19T14:20:04;14.67;;;11.70;;
2488;SDS011;1255;48.716;9.124;2022-08-19T14:22:34;20.80;;;13.30;;
2488;SDS011;1255;48.716;9.124;2022-08-19T14:25:02;14.97;;;12.97;;
2488;SDS011;1255;48.716;9.124;2022-08-19T14:27:29;14.33;;;12.83;;
2488;SDS011;1255;48.716;9.124;2022-08-19T14:29:58;16.30;;;12.67;;
2488;SDS011;1255;48.716;9.124;2022-08-19T14:32:26;19.93;;;13.87;;
2488;SDS011;1255;48.716;9.124;2022-08-19T14:34:53;16.27;;;13.57;;
2488;SDS011;1255;48.716;9.124;2022-08-19T14:37:20;14.83;;;12.87;;
2488;SDS011;1255;48.716;9.124;2022-08-19T14:39:47;14.53;;;12.27;;
2488;SDS011;1255;48.716;9.124;2022-08-19T14:42:14;15.43;;;13.10;;
2488;SDS011;1255;48.716;9.124;2022-08-19T14:44:41;14.13;;;12.47;;
2488;SDS011;1255;48.716;9.124;2022-08-19T14:47:08;14.87;;;12.03;;
2488;SDS011;1255;48.716;9.124;2022-08-19T14:49:37;13.97;;;12.53;;
2488;SDS011;1255;48.716;9.124;2022-08-19T14:52:04;18.57;;;11.43;;
2488;SDS011;1255;48.716;9.124;2022-08-19T14:54:31;15.03;;;12.10;;
2488;SDS011;1255;48.716;9.124;2022-08-19T14:56:58;15.83;;;12.13;;
2488;SDS011;1255;48.716;9.124;2022-08-19T14:59:25;12.80;;;11.50;;
2488;SDS011;1255;48.716;9.124;2022-08-19T15:01:52;14.67;;;12.47;;
2488;SDS011;1255;48.716;9.124;2022-08-19T15:04:18;14.30;;;11.43;;
2488;SDS011;1255;48.716;9.124;2022-08-19T15:06:46;14.17;;;11.63;;
2488;SDS011;1255;48.716;9.124;2022-08-19T15:09:15;11.10;;;9.53;;